Terminal Aerodrome Forecast
Issued by NWS

Home | Current Version | Previous Version | Text Only | Print | Product List | Glossary On
Versions: 1 2 3 4 5 6 7 8 9 10 11 12 13 14 15 16 17 18 19 20
000
FTUS46 KEKA 211740
TAFCEC
TAF
KCEC 211740Z 2118/2218 22009KT 3SM -RA BR OVC003
      TEMPO 2118/2122 1SM RA BR
     FM220300 19006KT 4SM -RA BR OVC004
     FM220700 21004KT 4SM -RA BKN004 OVC007
     FM221500 33004KT 5SM BR OVC007=

USA.gov is the U.S. government's official web portal to all federal, state and local government web resources and services.